createdAt,value
2019-04-28T00:00:11.448Z,84.5228
2019-04-28T00:01:16.229Z,86.0456
2019-04-28T00:02:22.488Z,85.7176
2019-04-28T00:03:27.929Z,84.8142
2019-04-28T00:04:33.794Z,83.8666
2019-04-28T00:05:39.072Z,84.6449
2019-04-28T00:06:44.208Z,84.6189
2019-04-28T00:07:50.573Z,83.8666
2019-04-28T00:08:57.851Z,84.8142
2019-04-28T00:10:02.253Z,83.7797
2019-04-28T00:11:07.229Z,82.9068
2019-04-28T00:12:11.812Z,82.0783
2019-04-28T00:13:16.802Z,84.0131
2019-04-28T00:14:22.064Z,83.9780
2019-04-28T00:15:28.081Z,82.7924
2019-04-28T00:16:34.147Z,82.5208
2019-04-28T00:17:39.854Z,82.7970
2019-04-28T00:18:43.204Z,83.9139
2019-04-28T00:19:48.925Z,84.1276
2019-04-28T00:20:54.857Z,82.9297
2019-04-28T00:22:01.040Z,82.1591
2019-04-28T00:23:07.126Z,83.1983
2019-04-28T00:24:12.892Z,83.5782
2019-04-28T00:25:18.096Z,84.4450
2019-04-28T00:26:23.971Z,83.0518
2019-04-28T00:27:29.220Z,82.5116
2019-04-28T00:28:35.006Z,82.6215
2019-04-28T00:29:43.554Z,82.6078
2019-04-28T00:30:51.724Z,82.8641
2019-04-28T00:31:56.823Z,84.2206
2019-04-28T00:33:01.805Z,82.8092
2019-04-28T00:34:06.896Z,82.5086
2019-04-28T00:35:12.863Z,83.6713
2019-04-28T00:36:18.310Z,83.4546
2019-04-28T00:37:23.857Z,84.2435
2019-04-28T00:38:28.939Z,83.7812
2019-04-28T00:39:34.802Z,83.3783
2019-04-28T00:40:41.366Z,83.6255
2019-04-28T00:41:46.256Z,83.8438
2019-04-28T00:42:51.270Z,83.9857
2019-04-28T00:43:57.100Z,83.9918
2019-04-28T00:45:02.817Z,83.4333
2019-04-28T00:46:08.869Z,84.8966
2019-04-28T00:47:13.931Z,84.2481
2019-04-28T00:48:20.929Z,83.4836
2019-04-28T00:49:27.344Z,84.0589
2019-04-28T00:50:33.200Z,85.1362
2019-04-28T00:51:38.311Z,83.6698
2019-04-28T00:52:43.928Z,84.1520
2019-04-28T00:53:50.904Z,82.7771
2019-04-28T00:54:56.892Z,83.4791
2019-04-28T00:56:02.838Z,84.6372
2019-04-28T00:57:07.866Z,84.0085
2019-04-28T00:58:13.967Z,83.8026
2019-04-28T00:59:21.574Z,83.6652
2019-04-28T01:00:26.866Z,83.0426
2019-04-28T01:01:31.887Z,83.9231
2019-04-28T01:02:37.834Z,81.7945
2019-04-28T01:03:42.848Z,83.6988
2019-04-28T01:04:47.244Z,84.1230
2019-04-28T01:05:52.836Z,82.9877
2019-04-28T01:06:57.239Z,83.2822
2019-04-28T01:08:02.209Z,82.2614
2019-04-28T01:09:07.808Z,82.5895
2019-04-28T01:10:12.839Z,83.0442
2019-04-28T01:11:17.843Z,82.7787
2019-04-28T01:12:22.805Z,82.3850
2019-04-28T01:13:27.844Z,81.5732
2019-04-28T01:14:32.884Z,80.5112
2019-04-28T01:15:39.677Z,81.8311
2019-04-28T01:16:44.255Z,81.2024
2019-04-28T01:17:49.862Z,81.7899
2019-04-28T01:18:55.088Z,82.5544
2019-04-28T01:20:00.859Z,81.6434
2019-04-28T01:21:05.853Z,80.9689
2019-04-28T01:22:11.259Z,80.7736
2019-04-28T01:23:16.927Z,79.7986
2019-04-28T01:24:22.855Z,80.1587
2019-04-28T01:25:29.844Z,81.8448
2019-04-28T01:26:37.234Z,82.1424
2019-04-28T01:27:42.197Z,81.0574
2019-04-28T01:28:47.217Z,81.4969
2019-04-28T01:30:05.096Z,82.9892
2019-04-28T01:31:02.230Z,81.7197
2019-04-28T01:32:07.848Z,80.6851
2019-04-28T01:33:12.949Z,81.2039
2019-04-28T01:34:20.355Z,80.0870
2019-04-28T01:35:25.886Z,81.5702
2019-04-28T01:36:30.846Z,81.6556
2019-04-28T01:37:36.101Z,80.3296
2019-04-28T01:38:41.867Z,81.9043
2019-04-28T01:39:46.220Z,81.2909
2019-04-28T01:40:51.918Z,81.6480
2019-04-28T01:41:59.423Z,82.3713
2019-04-28T01:43:04.816Z,80.8454
2019-04-28T01:44:10.314Z,81.8357
2019-04-28T01:45:15.225Z,81.5412
2019-04-28T01:46:20.214Z,81.0376
2019-04-28T01:47:24.767Z,81.2863
2019-04-28T01:48:29.619Z,82.0600
2019-04-28T01:49:36.857Z,81.5091
2019-04-28T01:50:41.823Z,82.4353
2019-04-28T01:51:46.853Z,82.8412
2019-04-28T01:52:51.990Z,82.6810
2019-04-28T01:53:57.910Z,81.9532
2019-04-28T01:55:03.872Z,81.7975
2019-04-28T01:56:10.535Z,81.5930
2019-04-28T01:57:16.344Z,81.1566
2019-04-28T01:58:21.379Z,80.6348
2019-04-28T01:59:27.002Z,79.9634
2019-04-28T02:00:32.893Z,81.4740
2019-04-28T02:01:39.996Z,81.4404
2019-04-28T02:02:46.259Z,80.0320
2019-04-28T02:03:51.219Z,81.9181
2019-04-28T02:04:56.999Z,81.4786
2019-04-28T02:06:02.974Z,81.7197
2019-04-28T02:07:10.876Z,82.3972
2019-04-28T02:08:16.798Z,82.0325
2019-04-28T02:09:21.806Z,81.8616
2019-04-28T02:10:26.333Z,81.7334
2019-04-28T02:11:31.516Z,81.8265
2019-04-28T02:12:36.836Z,82.1515
2019-04-28T02:13:42.137Z,81.9440
2019-04-28T02:14:47.199Z,82.0768
2019-04-28T02:15:52.894Z,81.1078
2019-04-28T02:16:58.267Z,81.6159
2019-04-28T02:18:04.123Z,82.5956
2019-04-28T02:19:10.768Z,82.7909
2019-04-28T02:20:15.208Z,82.6947
2019-04-28T02:21:20.955Z,82.8336
2019-04-28T02:22:26.237Z,83.8026
2019-04-28T02:23:31.794Z,84.0742
2019-04-28T02:24:36.912Z,84.0589
2019-04-28T02:25:42.862Z,84.3763
2019-04-28T02:26:47.807Z,84.9622
2019-04-28T02:27:52.841Z,85.2140
2019-04-28T02:29:00.241Z,84.9485
2019-04-28T02:30:04.920Z,84.7318
2019-04-28T02:31:11.589Z,84.7822
2019-04-28T02:32:16.221Z,84.4526
2019-04-28T02:33:21.921Z,83.8132
2019-04-28T02:34:30.945Z,84.0497
2019-04-28T02:35:36.283Z,83.5111
2019-04-28T02:36:41.902Z,82.8840
2019-04-28T02:37:50.030Z,83.2212
2019-04-28T02:38:55.765Z,84.4251
2019-04-28T02:40:03.321Z,84.6265
2019-04-28T02:41:11.123Z,85.0263
2019-04-28T02:42:17.420Z,83.6988
2019-04-28T02:43:21.792Z,83.9460
2019-04-28T02:44:31.077Z,83.6469
2019-04-28T02:45:37.871Z,84.8600
2019-04-28T02:46:43.874Z,83.6698
2019-04-28T02:47:48.827Z,83.2227
2019-04-28T02:48:54.227Z,83.6713
2019-04-28T02:50:00.962Z,86.0914
2019-04-28T02:51:07.000Z,82.7863
2019-04-28T02:52:12.883Z,82.6963
2019-04-28T02:53:21.070Z,83.7766
2019-04-28T02:54:26.901Z,86.1524
2019-04-28T02:55:33.106Z,86.4820
2019-04-28T02:56:43.406Z,86.2882
2019-04-28T02:57:48.223Z,85.7435
2019-04-28T02:58:52.881Z,86.3401
2019-04-28T02:59:57.321Z,86.7140
2019-04-28T03:01:15.226Z,86.2348
2019-04-28T03:02:12.818Z,86.4363
2019-04-28T03:03:17.823Z,88.5008
2019-04-28T03:04:22.262Z,88.6015
2019-04-28T03:05:27.793Z,88.5496
2019-04-28T03:06:32.214Z,88.4169
2019-04-28T03:07:37.899Z,88.3024
2019-04-28T03:08:43.931Z,88.4550
2019-04-28T03:09:51.990Z,87.8691
2019-04-28T03:11:00.630Z,87.5654
2019-04-28T03:12:07.005Z,88.6183
2019-04-28T03:13:13.387Z,89.4881
2019-04-28T03:14:20.852Z,88.6595
2019-04-28T03:15:26.221Z,87.9744
2019-04-28T03:16:31.804Z,85.9785
2019-04-28T03:17:36.857Z,87.3610
2019-04-28T03:18:41.783Z,87.6707
2019-04-28T03:19:46.837Z,88.5969
2019-04-28T03:20:52.071Z,89.8177
2019-04-28T03:21:57.787Z,90.3914
2019-04-28T03:23:02.909Z,89.7856
2019-04-28T03:24:11.002Z,90.5791
2019-04-28T03:25:20.401Z,90.9682
2019-04-28T03:26:25.885Z,91.2871
2019-04-28T03:27:31.387Z,89.7185
2019-04-28T03:28:36.930Z,89.1722
2019-04-28T03:29:42.938Z,89.7902
2019-04-28T03:30:48.230Z,89.4194
2019-04-28T03:32:15.692Z,90.5882
2019-04-28T03:33:11.848Z,90.8522
2019-04-28T03:34:15.252Z,91.1788
2019-04-28T03:35:22.919Z,91.7083
2019-04-28T03:36:32.955Z,92.9213
2019-04-28T03:37:41.137Z,93.1502
2019-04-28T03:38:46.900Z,93.1105
2019-04-28T03:39:52.230Z,91.1772
2019-04-28T03:40:57.942Z,90.3960
2019-04-28T03:42:03.905Z,90.5837
2019-04-28T03:43:10.940Z,90.9987
2019-04-28T03:44:20.784Z,88.7800
2019-04-28T03:45:26.905Z,90.7759
2019-04-28T03:46:32.867Z,90.8202
2019-04-28T03:47:36.929Z,90.3593
2019-04-28T03:48:42.359Z,89.3645
2019-04-28T03:49:46.217Z,90.4601
2019-04-28T03:50:51.885Z,90.1930
2019-04-28T03:51:56.326Z,88.7709
2019-04-28T03:53:01.887Z,87.3793
2019-04-28T03:54:06.884Z,87.4693
2019-04-28T03:55:11.865Z,86.6239
2019-04-28T03:56:17.916Z,88.6915
2019-04-28T03:57:23.894Z,87.3655
2019-04-28T03:58:31.054Z,88.2811
2019-04-28T03:59:36.872Z,88.8029
2019-04-28T04:00:41.852Z,89.6208
2019-04-28T04:01:56.725Z,88.4855
2019-04-28T04:03:00.596Z,89.6406
2019-04-28T04:04:07.134Z,90.4997
2019-04-28T04:05:12.933Z,91.3420
2019-04-28T04:06:18.746Z,91.4672
2019-04-28T04:07:23.220Z,91.5496
2019-04-28T04:08:30.954Z,92.1538
2019-04-28T04:09:36.836Z,92.0470
2019-04-28T04:10:40.487Z,92.0562
2019-04-28T04:11:45.967Z,91.4992
2019-04-28T04:12:51.962Z,91.7403
2019-04-28T04:13:57.912Z,93.3532
2019-04-28T04:15:04.150Z,94.6242
2019-04-28T04:16:10.375Z,95.4070
2019-04-28T04:17:15.807Z,95.7732
2019-04-28T04:18:21.226Z,95.9564
2019-04-28T04:19:26.231Z,96.0861
2019-04-28T04:20:31.883Z,96.3333
2019-04-28T04:21:40.483Z,96.3836
2019-04-28T04:22:45.865Z,96.6293
2019-04-28T04:23:51.111Z,96.8460
2019-04-28T04:24:56.235Z,96.9329
2019-04-28T04:26:02.251Z,97.1603
2019-04-28T04:27:10.543Z,97.3312
2019-04-28T04:28:15.837Z,97.4853
2019-04-28T04:29:21.714Z,97.6089
2019-04-28T04:30:26.902Z,97.8149
2019-04-28T04:31:32.010Z,97.8759
2019-04-28T04:32:40.893Z,97.9355
2019-04-28T04:33:46.854Z,98.0270
2019-04-28T04:34:51.904Z,98.0484
2019-04-28T04:35:57.939Z,97.1069
2019-04-28T04:37:03.201Z,94.2779
2019-04-28T04:38:10.463Z,92.8267
2019-04-28T04:39:16.079Z,92.2408
2019-04-28T04:40:21.272Z,91.2657
2019-04-28T04:41:27.002Z,93.1105
2019-04-28T04:42:32.908Z,93.3745
2019-04-28T04:43:41.182Z,94.5251
2019-04-28T04:44:46.230Z,95.7839
2019-04-28T04:45:51.208Z,95.7336
2019-04-28T04:46:56.863Z,95.0469
2019-04-28T04:48:01.429Z,95.8755
2019-04-28T04:49:06.817Z,96.3775
2019-04-28T04:50:13.241Z,96.6217
2019-04-28T04:51:21.286Z,96.3821
2019-04-28T04:52:26.808Z,96.3561
2019-04-28T04:53:31.877Z,96.4248
2019-04-28T04:54:37.017Z,95.8923
2019-04-28T04:55:43.034Z,95.5505
2019-04-28T04:56:50.135Z,94.8898
2019-04-28T04:57:55.835Z,94.0764
2019-04-28T04:59:02.733Z,93.8506
2019-04-28T05:00:10.053Z,93.3425
2019-04-28T05:01:15.220Z,93.3303
2019-04-28T05:02:29.364Z,93.2784
2019-04-28T05:03:31.791Z,93.0266
2019-04-28T05:04:36.796Z,92.7565
2019-04-28T05:05:41.787Z,92.7443
2019-04-28T05:06:46.800Z,92.8817
2019-04-28T05:07:51.869Z,93.0175
2019-04-28T05:08:56.204Z,93.4340
2019-04-28T05:10:01.826Z,92.1401
2019-04-28T05:11:06.864Z,91.9142
2019-04-28T05:12:12.257Z,92.6101
2019-04-28T05:13:17.875Z,92.2347
2019-04-28T05:14:23.955Z,92.2301
2019-04-28T05:15:30.411Z,91.2612
2019-04-28T05:16:35.852Z,92.4269
2019-04-28T05:17:40.320Z,92.3537
2019-04-28T05:18:45.920Z,92.4086
2019-04-28T05:19:51.949Z,92.3323
2019-04-28T05:20:57.227Z,92.6894
2019-04-28T05:22:02.201Z,91.5862
2019-04-28T05:23:09.588Z,91.7495
2019-04-28T05:24:15.959Z,91.7235
2019-04-28T05:25:24.585Z,92.5963
2019-04-28T05:26:34.082Z,92.5978
2019-04-28T05:27:40.026Z,93.0907
2019-04-28T05:28:51.410Z,92.9915
2019-04-28T05:29:56.822Z,92.8893
2019-04-28T05:31:05.892Z,93.2464
2019-04-28T05:32:10.968Z,92.9137
2019-04-28T05:33:17.120Z,92.9091
2019-04-28T05:34:24.102Z,93.8064
2019-04-28T05:35:29.464Z,93.7636
2019-04-28T05:36:40.941Z,94.3725
2019-04-28T05:37:45.275Z,93.3700
2019-04-28T05:38:50.826Z,93.2204
2019-04-28T05:39:55.804Z,93.5348
2019-04-28T05:41:02.820Z,94.1573
2019-04-28T05:42:09.706Z,94.1909
2019-04-28T05:43:16.984Z,93.7331
2019-04-28T05:44:22.853Z,94.1543
2019-04-28T05:45:27.918Z,94.6517
2019-04-28T05:46:33.878Z,94.8592
2019-04-28T05:47:40.793Z,94.8730
2019-04-28T05:48:49.483Z,95.0317
2019-04-28T05:49:56.796Z,94.6746
2019-04-28T05:51:01.924Z,94.0078
2019-04-28T05:52:06.288Z,93.4890
2019-04-28T05:53:11.848Z,94.1802
2019-04-28T05:54:16.828Z,94.2184
2019-04-28T05:55:21.477Z,91.6854
2019-04-28T05:56:26.853Z,92.5154
2019-04-28T05:57:31.919Z,92.1172
2019-04-28T05:58:40.097Z,92.7810
2019-04-28T05:59:45.208Z,93.3715
2019-04-28T06:00:50.856Z,93.7606
2019-04-28T06:01:55.799Z,93.6172
2019-04-28T06:03:00.931Z,93.9971
2019-04-28T06:04:06.374Z,94.3908
2019-04-28T06:05:12.199Z,94.1405
2019-04-28T06:06:17.908Z,94.3038
2019-04-28T06:07:23.884Z,94.4778
2019-04-28T06:08:30.347Z,95.3445
2019-04-28T06:09:35.819Z,95.5642
2019-04-28T06:10:40.940Z,95.5947
2019-04-28T06:11:45.214Z,95.6497
2019-04-28T06:12:50.859Z,95.3994
2019-04-28T06:13:55.845Z,95.2789
2019-04-28T06:15:00.840Z,95.7198
2019-04-28T06:16:05.223Z,95.9304
2019-04-28T06:17:10.980Z,96.0937
2019-04-28T06:18:15.206Z,96.1913
2019-04-28T06:19:20.783Z,96.8689
2019-04-28T06:20:25.853Z,97.1969
2019-04-28T06:21:30.866Z,97.5143
2019-04-28T06:22:35.864Z,97.6059
2019-04-28T06:23:41.169Z,97.4868
2019-04-28T06:24:46.307Z,97.5036
2019-04-28T06:25:51.934Z,97.6089
2019-04-28T06:26:57.167Z,97.5601
2019-04-28T06:28:02.846Z,97.4502
2019-04-28T06:29:07.854Z,97.4640
2019-04-28T06:30:12.213Z,97.4273
2019-04-28T06:31:18.190Z,97.6410
2019-04-28T06:32:23.235Z,97.7829
2019-04-28T06:33:28.778Z,98.0636
2019-04-28T06:34:33.758Z,97.5631
2019-04-28T06:35:38.832Z,97.5494
2019-04-28T06:36:43.952Z,97.6516
2019-04-28T06:37:49.875Z,97.7111
2019-04-28T06:38:54.217Z,97.9065
2019-04-28T06:39:59.904Z,97.8531
2019-04-28T06:41:05.895Z,97.9309
2019-04-28T06:42:10.908Z,97.5357
2019-04-28T06:43:15.940Z,97.2717
2019-04-28T06:44:21.235Z,97.1801
2019-04-28T06:45:26.896Z,97.2305
2019-04-28T06:46:32.951Z,97.5463
2019-04-28T06:47:38.944Z,97.5311
2019-04-28T06:48:44.820Z,96.8505
2019-04-28T06:49:49.207Z,97.2244
2019-04-28T06:50:55.233Z,97.2030
2019-04-28T06:52:00.850Z,97.0657
2019-04-28T06:53:06.554Z,97.2290
2019-04-28T06:54:11.746Z,97.2900
2019-04-28T06:55:16.917Z,97.7432
2019-04-28T06:56:22.790Z,97.9767
2019-04-28T06:57:27.860Z,97.7295
2019-04-28T06:58:32.255Z,97.8027
2019-04-28T06:59:37.253Z,98.2406
2019-04-28T07:00:42.852Z,98.2742
2019-04-28T07:01:47.792Z,97.8347
2019-04-28T07:02:52.938Z,97.8302
2019-04-28T07:03:58.854Z,98.0667
2019-04-28T07:05:03.907Z,97.4716
2019-04-28T07:06:09.877Z,96.8399
2019-04-28T07:07:20.213Z,96.7117
2019-04-28T07:08:25.225Z,96.7269
2019-04-28T07:09:31.582Z,97.1145
2019-04-28T07:10:36.827Z,96.8780
2019-04-28T07:11:42.061Z,97.0199
2019-04-28T07:12:47.839Z,97.1054
2019-04-28T07:13:52.207Z,97.0871
2019-04-28T07:14:57.900Z,97.2885
2019-04-28T07:16:03.246Z,97.6104
2019-04-28T07:17:08.874Z,97.8149
2019-04-28T07:18:14.155Z,97.3816
2019-04-28T07:19:20.673Z,97.7615
2019-04-28T07:20:25.891Z,97.8515
2019-04-28T07:21:30.857Z,97.7737
2019-04-28T07:22:35.471Z,97.6501
2019-04-28T07:23:40.856Z,97.7707
2019-04-28T07:24:45.765Z,98.0117
2019-04-28T07:25:50.898Z,98.3383
2019-04-28T07:26:56.196Z,98.3108
2019-04-28T07:28:01.809Z,98.1414
2019-04-28T07:29:06.831Z,98.2879
2019-04-28T07:30:11.226Z,98.6343
2019-04-28T07:31:16.874Z,98.8510
2019-04-28T07:32:21.998Z,98.8968
2019-04-28T07:33:35.766Z,98.8190
2019-04-28T07:34:37.833Z,98.6435
2019-04-28T07:35:42.228Z,98.4421
2019-04-28T07:36:47.889Z,98.6389
2019-04-28T07:37:54.119Z,98.3841
2019-04-28T07:38:58.868Z,98.4466
2019-04-28T07:40:03.916Z,98.3246
2019-04-28T07:41:09.862Z,98.5443
2019-04-28T07:42:14.826Z,98.5565
2019-04-28T07:43:18.683Z,98.6679
2019-04-28T07:44:23.229Z,98.5428
2019-04-28T07:45:28.209Z,98.6068
2019-04-28T07:46:33.227Z,98.8266
2019-04-28T07:47:38.827Z,98.5443
2019-04-28T07:48:43.920Z,98.1811
2019-04-28T07:49:49.221Z,98.4329
2019-04-28T07:50:54.814Z,98.6297
2019-04-28T07:51:59.888Z,98.1994
2019-04-28T07:53:05.838Z,97.4685
2019-04-28T07:54:11.051Z,97.3617
2019-04-28T07:55:16.884Z,96.9955
2019-04-28T07:56:22.849Z,96.7178
2019-04-28T07:57:28.050Z,97.1527
2019-04-28T07:58:34.235Z,96.6766
2019-04-28T07:59:39.864Z,96.7224
2019-04-28T08:00:45.390Z,96.9085
2019-04-28T08:01:51.566Z,96.5072
2019-04-28T08:02:56.245Z,95.0362
2019-04-28T08:04:03.057Z,96.1135
2019-04-28T08:05:08.778Z,95.1019
2019-04-28T08:06:13.826Z,95.7504
2019-04-28T08:07:18.829Z,96.1364
2019-04-28T08:08:23.822Z,95.8511
2019-04-28T08:09:28.489Z,95.9152
2019-04-28T08:10:33.836Z,96.0677
2019-04-28T08:11:38.877Z,95.3521
2019-04-28T08:12:43.740Z,95.9899
2019-04-28T08:13:48.867Z,94.7723
2019-04-28T08:14:54.919Z,94.6975
2019-04-28T08:16:00.802Z,93.6034
2019-04-28T08:17:05.919Z,95.1965
2019-04-28T08:18:11.201Z,94.3679
2019-04-28T08:19:17.162Z,93.1151
2019-04-28T08:20:22.849Z,93.0098
2019-04-28T08:21:27.212Z,91.5496
2019-04-28T08:22:32.883Z,93.0739
2019-04-28T08:23:47.079Z,91.1238
2019-04-28T08:24:49.845Z,92.1660
2019-04-28T08:25:54.837Z,89.3980
2019-04-28T08:27:00.367Z,88.4855
2019-04-28T08:28:05.856Z,90.4219
2019-04-28T08:29:10.947Z,89.3751
2019-04-28T08:30:16.786Z,88.9906
2019-04-28T08:31:21.895Z,89.9016
2019-04-28T08:32:27.834Z,90.9529
2019-04-28T08:33:33.989Z,91.1376
2019-04-28T08:34:39.885Z,88.2063
2019-04-28T08:35:45.776Z,87.6722
2019-04-28T08:36:50.819Z,85.5116
2019-04-28T08:37:55.214Z,87.2740
2019-04-28T08:39:00.224Z,84.4999
2019-04-28T08:40:05.885Z,87.6066
2019-04-28T08:41:11.237Z,87.9698
2019-04-28T08:42:16.232Z,87.6249
2019-04-28T08:43:22.064Z,87.7729
2019-04-28T08:44:27.850Z,84.0085
2019-04-28T08:45:32.862Z,81.0742
2019-04-28T08:46:37.208Z,83.3051
2019-04-28T08:47:42.885Z,88.2857
2019-04-28T08:48:48.898Z,85.2415
2019-04-28T08:49:54.049Z,84.2023
2019-04-28T08:51:00.005Z,83.7568
2019-04-28T08:52:06.076Z,87.7440
2019-04-28T08:53:13.974Z,84.0192
2019-04-28T08:54:19.886Z,81.3779
2019-04-28T08:55:24.241Z,83.6301
2019-04-28T08:56:28.259Z,81.8250
2019-04-28T08:57:33.843Z,82.7466
2019-04-28T08:58:38.762Z,81.3275
2019-04-28T08:59:43.882Z,83.2319
2019-04-28T09:00:49.231Z,79.4232
2019-04-28T09:01:54.931Z,81.4282
2019-04-28T09:03:00.241Z,83.5279
2019-04-28T09:04:15.194Z,81.6190
2019-04-28T09:05:15.831Z,78.9426
2019-04-28T09:06:21.230Z,83.7766
2019-04-28T09:07:26.860Z,79.9451
2019-04-28T09:08:32.510Z,81.4038
2019-04-28T09:09:37.836Z,78.4054
2019-04-28T09:10:43.865Z,81.5549
2019-04-28T09:11:49.176Z,79.4400
2019-04-28T09:12:54.222Z,75.7458
2019-04-28T09:14:00.208Z,77.6287
2019-04-28T09:15:05.223Z,79.4781
2019-04-28T09:16:10.789Z,78.4298
2019-04-28T09:17:15.900Z,79.0646
2019-04-28T09:18:21.766Z,82.7771
2019-04-28T09:19:26.925Z,79.9771
2019-04-28T09:20:32.163Z,81.8341
2019-04-28T09:21:36.231Z,82.2141
2019-04-28T09:22:41.903Z,84.1520
2019-04-28T09:23:47.237Z,80.1083
2019-04-28T09:24:52.961Z,79.2386
2019-04-28T09:25:58.833Z,82.1408
2019-04-28T09:27:03.969Z,79.8382
2019-04-28T09:28:09.811Z,77.2427
2019-04-28T09:29:14.829Z,77.4029
2019-04-28T09:30:19.892Z,75.9670
2019-04-28T09:31:23.913Z,74.7372
2019-04-28T09:32:29.212Z,75.3628
2019-04-28T09:33:34.796Z,77.9721
2019-04-28T09:34:39.223Z,75.5032
2019-04-28T09:35:44.779Z,75.0912
2019-04-28T09:36:49.971Z,73.7087
2019-04-28T09:38:31.725Z,75.9625
2019-04-28T09:39:36.825Z,77.6928
2019-04-28T09:40:40.224Z,78.6267
2019-04-28T09:41:45.493Z,78.9746
2019-04-28T09:42:50.226Z,77.3861
2019-04-28T09:43:55.899Z,81.6144
2019-04-28T09:45:01.861Z,82.0829
2019-04-28T09:46:06.854Z,83.2044
2019-04-28T09:47:17.772Z,81.5930
2019-04-28T09:48:22.934Z,84.5167
2019-04-28T09:49:28.832Z,82.0142
2019-04-28T09:50:33.854Z,84.9485
2019-04-28T09:51:53.396Z,82.0768
2019-04-28T09:52:57.681Z,83.9902
2019-04-28T09:54:02.850Z,81.3092
2019-04-28T09:55:07.228Z,77.0230
2019-04-28T09:56:12.994Z,78.3475
2019-04-28T09:57:18.765Z,77.7005
2019-04-28T09:58:23.805Z,79.6429
2019-04-28T09:59:29.821Z,77.1710
2019-04-28T10:00:35.013Z,77.4502
2019-04-28T10:01:40.873Z,76.8856
2019-04-28T10:02:46.864Z,79.3896
2019-04-28T10:03:51.823Z,76.4843
2019-04-28T10:04:57.790Z,76.5393
2019-04-28T10:06:02.936Z,76.5698
2019-04-28T10:07:08.228Z,77.5677
2019-04-28T10:08:13.889Z,78.8418
2019-04-28T10:09:18.903Z,74.9996
2019-04-28T10:10:24.756Z,79.6292
2019-04-28T10:11:30.844Z,74.8852
2019-04-28T10:12:36.217Z,78.2010
2019-04-28T10:13:41.996Z,76.9604
2019-04-28T10:14:47.875Z,73.8232
2019-04-28T10:15:52.829Z,69.5750
2019-04-28T10:16:57.825Z,72.4178
2019-04-28T10:18:08.766Z,71.9326
2019-04-28T10:19:13.905Z,72.6131
2019-04-28T10:20:19.214Z,75.6924
2019-04-28T10:21:24.850Z,73.4188
2019-04-28T10:22:51.971Z,73.4890
2019-04-28T10:23:57.207Z,69.3828
2019-04-28T10:25:03.211Z,71.1452
2019-04-28T10:26:08.764Z,71.8532
2019-04-28T10:27:13.811Z,78.8006
2019-04-28T10:28:24.771Z,72.6787
2019-04-28T10:29:32.799Z,74.7555
2019-04-28T10:30:38.900Z,74.2901
2019-04-28T10:31:45.420Z,72.7047
2019-04-28T10:32:57.861Z,73.4188
2019-04-28T10:34:02.873Z,72.0607
2019-04-28T10:35:08.344Z,72.2377
2019-04-28T10:36:13.938Z,75.3063
2019-04-28T10:37:19.795Z,75.4772
2019-04-28T10:38:24.778Z,72.4681
2019-04-28T10:39:35.770Z,71.9539
2019-04-28T10:40:40.873Z,71.8364
2019-04-28T10:41:46.102Z,75.7504
2019-04-28T10:42:52.051Z,71.2963
2019-04-28T10:43:57.796Z,73.9727
2019-04-28T10:45:08.769Z,75.9533
2019-04-28T10:46:13.853Z,73.8628
2019-04-28T10:47:18.835Z,71.5465
2019-04-28T10:48:23.771Z,73.3242
2019-04-28T10:49:28.866Z,72.9198
2019-04-28T10:50:34.184Z,74.1192
2019-04-28T10:51:39.849Z,73.8491
2019-04-28T10:52:44.225Z,70.2388
2019-04-28T10:53:50.429Z,75.2056
2019-04-28T10:54:58.774Z,71.8593
2019-04-28T10:56:03.941Z,73.0983
2019-04-28T10:57:09.859Z,70.0648
2019-04-28T10:58:14.960Z,71.4336
2019-04-28T10:59:20.221Z,70.4570
2019-04-28T11:00:26.160Z,72.4483
2019-04-28T11:01:31.979Z,72.4987
2019-04-28T11:02:38.588Z,68.8548
2019-04-28T11:03:43.819Z,69.7993
2019-04-28T11:04:48.989Z,70.2388
2019-04-28T11:05:55.184Z,69.1905
2019-04-28T11:07:00.889Z,71.3771
2019-04-28T11:08:06.564Z,71.1406
2019-04-28T11:09:11.900Z,70.3166
2019-04-28T11:10:17.228Z,71.1391
2019-04-28T11:11:22.906Z,69.2393
2019-04-28T11:12:28.836Z,69.8268
2019-04-28T11:13:33.200Z,70.5028
2019-04-28T11:14:56.865Z,70.7881
2019-04-28T11:16:01.808Z,69.8772
2019-04-28T11:17:06.896Z,68.2780
2019-04-28T11:18:12.856Z,67.0481
2019-04-28T11:19:17.902Z,67.3350
2019-04-28T11:20:25.255Z,68.2155
2019-04-28T11:21:31.398Z,69.4041
2019-04-28T11:22:36.756Z,69.1539
2019-04-28T11:23:41.237Z,66.0319
2019-04-28T11:24:46.883Z,65.4963
2019-04-28T11:25:50.836Z,65.8930
2019-04-28T11:26:55.214Z,67.9622
2019-04-28T11:28:00.774Z,64.1596
2019-04-28T11:29:05.913Z,65.0431
2019-04-28T11:30:10.757Z,66.5034
2019-04-28T11:31:15.871Z,65.4169
2019-04-28T11:32:20.893Z,66.8376
2019-04-28T11:33:26.993Z,67.6600
2019-04-28T11:34:32.921Z,65.7420
2019-04-28T11:35:38.218Z,67.2618
2019-04-28T11:36:43.940Z,68.1865
2019-04-28T11:37:49.808Z,69.1814
2019-04-28T11:38:54.870Z,69.1340
2019-04-28T11:39:59.833Z,66.4942
2019-04-28T11:41:04.674Z,66.5217
2019-04-28T11:42:10.339Z,68.7099
2019-04-28T11:43:15.226Z,69.6849
2019-04-28T11:44:20.214Z,71.2917
2019-04-28T11:45:26.356Z,72.4407
2019-04-28T11:46:31.792Z,68.1956
2019-04-28T11:47:36.827Z,69.4286
2019-04-28T11:48:41.866Z,70.7362
2019-04-28T11:49:46.235Z,67.4723
2019-04-28T11:50:51.875Z,68.5313
2019-04-28T11:51:56.913Z,68.3192
2019-04-28T11:53:02.817Z,64.5014
2019-04-28T11:54:07.903Z,65.5222
2019-04-28T11:55:13.519Z,63.8712
2019-04-28T11:56:18.991Z,63.3890
2019-04-28T11:57:24.895Z,67.5105
2019-04-28T11:58:31.266Z,68.3146
2019-04-28T11:59:37.115Z,63.6881
2019-04-28T12:00:44.979Z,68.1285
2019-04-28T12:01:50.647Z,66.6941
2019-04-28T12:02:55.307Z,63.6835
2019-04-28T12:04:01.406Z,65.1743
2019-04-28T12:05:06.887Z,65.0736
2019-04-28T12:06:12.851Z,65.9663
2019-04-28T12:07:17.810Z,65.1011
2019-04-28T12:08:23.122Z,67.0298
2019-04-28T12:09:29.093Z,64.9699
2019-04-28T12:10:34.952Z,59.5026
2019-04-28T12:11:40.909Z,62.4140
2019-04-28T12:12:47.166Z,63.6881
2019-04-28T12:13:52.880Z,63.9841
2019-04-28T12:14:57.933Z,65.0278
2019-04-28T12:16:03.828Z,62.3789
2019-04-28T12:17:08.294Z,62.8550
2019-04-28T12:18:14.942Z,66.7735
2019-04-28T12:19:20.955Z,67.3823
2019-04-28T12:20:27.204Z,66.8498
2019-04-28T12:21:32.822Z,57.6226
2019-04-28T12:22:37.779Z,66.4439
2019-04-28T12:23:42.400Z,62.0020
2019-04-28T12:24:47.936Z,60.4837
2019-04-28T12:25:53.909Z,65.7557
2019-04-28T12:26:59.832Z,66.3966
2019-04-28T12:28:04.849Z,66.4240
2019-04-28T12:29:10.234Z,67.0802
2019-04-28T12:30:15.913Z,67.2663
2019-04-28T12:31:22.836Z,64.1581
2019-04-28T12:32:27.846Z,66.6301
2019-04-28T12:33:32.981Z,63.8529
2019-04-28T12:34:38.879Z,65.7114
2019-04-28T12:35:48.084Z,65.3361
2019-04-28T12:36:53.284Z,64.6540
2019-04-28T12:37:58.772Z,68.7221
2019-04-28T12:39:03.772Z,69.7246
2019-04-28T12:40:09.202Z,68.0644
2019-04-28T12:41:14.808Z,68.7419
2019-04-28T12:42:20.129Z,69.3538
2019-04-28T12:43:26.115Z,67.2679
2019-04-28T12:44:31.202Z,67.7882
2019-04-28T12:45:36.915Z,68.2872
2019-04-28T12:46:42.992Z,70.0877
2019-04-28T12:47:49.164Z,71.9997
2019-04-28T12:48:55.155Z,73.6034
2019-04-28T12:50:00.958Z,73.7820
2019-04-28T12:51:09.930Z,74.1894
2019-04-28T12:52:15.818Z,76.1532
2019-04-28T12:53:20.850Z,75.4116
2019-04-28T12:54:25.235Z,78.8540
2019-04-28T12:55:30.849Z,78.3108
2019-04-28T12:56:37.031Z,78.3688
2019-04-28T12:57:43.014Z,74.7600
2019-04-28T12:58:48.824Z,76.8872
2019-04-28T12:59:53.290Z,79.1012
2019-04-28T13:00:58.903Z,79.7284
2019-04-28T13:02:04.847Z,79.6246
2019-04-28T13:03:09.443Z,78.5122
2019-04-28T13:04:17.851Z,79.3133
2019-04-28T13:05:22.842Z,77.7844
2019-04-28T13:06:27.798Z,80.1740
2019-04-28T13:07:32.846Z,78.9563
2019-04-28T13:08:37.853Z,79.1333
2019-04-28T13:09:42.873Z,79.7162
2019-04-28T13:10:48.320Z,79.6292
2019-04-28T13:11:53.249Z,78.4115
2019-04-28T13:12:58.849Z,78.7808
2019-04-28T13:14:04.817Z,78.4619
2019-04-28T13:15:09.783Z,78.5519
2019-04-28T13:16:14.806Z,77.0016